sensor_id;sensor_type;location;lat;lon;timestamp;pressure;altitude;pressure_sealevel;temperature;humidity
58967;BME280;44744;51.894;5.080;2023-03-20T00:00:02;102091.81;;;8.33;82.54
58967;BME280;44744;51.894;5.080;2023-03-20T00:01:12;102090.57;;;8.33;82.50
58967;BME280;44744;51.894;5.080;2023-03-20T00:02:21;102086.56;;;8.31;82.35
58967;BME280;44744;51.894;5.080;2023-03-20T00:03:22;102085.16;;;8.30;82.30
58967;BME280;44744;51.894;5.080;2023-03-20T00:04:22;102085.50;;;8.31;82.26
58967;BME280;44744;51.894;5.080;2023-03-20T00:05:24;102084.13;;;8.29;82.32
58967;BME280;44744;51.894;5.080;2023-03-20T00:06:26;102084.46;;;8.30;82.28
58967;BME280;44744;51.894;5.080;2023-03-20T00:07:27;102087.27;;;8.30;82.16
58967;BME280;44744;51.894;5.080;2023-03-20T00:08:27;102084.42;;;8.31;82.13
58967;BME280;44744;51.894;5.080;2023-03-20T00:09:28;102087.04;;;8.33;82.17
58967;BME280;44744;51.894;5.080;2023-03-20T00:10:46;102087.54;;;8.34;82.10
58967;BME280;44744;51.894;5.080;2023-03-20T00:11:48;102084.55;;;8.33;81.92
58967;BME280;44744;51.894;5.080;2023-03-20T00:12:49;102085.61;;;8.33;81.82
58967;BME280;44744;51.894;5.080;2023-03-20T00:13:50;102081.39;;;8.33;81.76
58967;BME280;44744;51.894;5.080;2023-03-20T00:14:53;102081.37;;;8.33;81.70
58967;BME280;44744;51.894;5.080;2023-03-20T00:15:53;102078.77;;;8.33;81.57
58967;BME280;44744;51.894;5.080;2023-03-20T00:17:10;102079.80;;;8.33;81.50
58967;BME280;44744;51.894;5.080;2023-03-20T00:18:21;102077.17;;;8.33;81.46
58967;BME280;44744;51.894;5.080;2023-03-20T00:19:25;102074.20;;;8.31;81.21
58967;BME280;44744;51.894;5.080;2023-03-20T00:20:26;102076.48;;;8.32;81.20
58967;BME280;44744;51.894;5.080;2023-03-20T00:21:26;102070.49;;;8.32;81.18
58967;BME280;44744;51.894;5.080;2023-03-20T00:22:26;102065.37;;;8.32;81.11
58967;BME280;44744;51.894;5.080;2023-03-20T00:23:27;102062.02;;;8.32;80.92
58967;BME280;44744;51.894;5.080;2023-03-20T00:24:27;102059.04;;;8.32;80.88
58967;BME280;44744;51.894;5.080;2023-03-20T00:25:30;102056.05;;;8.31;80.20
58967;BME280;44744;51.894;5.080;2023-03-20T00:26:33;102046.03;;;8.30;80.10
58967;BME280;44744;51.894;5.080;2023-03-20T00:27:34;102042.91;;;8.29;80.04
58967;BME280;44744;51.894;5.080;2023-03-20T00:28:45;102045.73;;;8.28;80.09
58967;BME280;44744;51.894;5.080;2023-03-20T00:29:46;102048.23;;;8.27;80.03
58967;BME280;44744;51.894;5.080;2023-03-20T00:30:46;102052.14;;;8.26;80.05
58967;BME280;44744;51.894;5.080;2023-03-20T00:31:47;102053.20;;;8.27;80.00
58967;BME280;44744;51.894;5.080;2023-03-20T00:32:49;102053.36;;;8.27;79.76
58967;BME280;44744;51.894;5.080;2023-03-20T00:33:55;102055.31;;;8.27;79.86
58967;BME280;44744;51.894;5.080;2023-03-20T00:34:56;102062.70;;;8.27;79.64
58967;BME280;44744;51.894;5.080;2023-03-20T00:35:56;102071.52;;;8.26;79.62
58967;BME280;44744;51.894;5.080;2023-03-20T00:36:57;102077.91;;;8.24;79.52
58967;BME280;44744;51.894;5.080;2023-03-20T00:37:58;102085.30;;;8.25;79.71
58967;BME280;44744;51.894;5.080;2023-03-20T00:38:58;102085.29;;;8.25;79.74
58967;BME280;44744;51.894;5.080;2023-03-20T00:39:58;102086.70;;;8.26;79.82
58967;BME280;44744;51.894;5.080;2023-03-20T00:40:59;102089.70;;;8.25;79.89
58967;BME280;44744;51.894;5.080;2023-03-20T00:42:01;102095.14;;;8.26;80.07
58967;BME280;44744;51.894;5.080;2023-03-20T00:43:03;102100.42;;;8.27;79.87
58967;BME280;44744;51.894;5.080;2023-03-20T00:45:29;102098.52;;;8.25;79.99
58967;BME280;44744;51.894;5.080;2023-03-20T00:46:34;102098.69;;;8.25;79.92
58967;BME280;44744;51.894;5.080;2023-03-20T00:47:37;102102.25;;;8.23;79.99
58967;BME280;44744;51.894;5.080;2023-03-20T00:48:39;102109.80;;;8.24;79.88
58967;BME280;44744;51.894;5.080;2023-03-20T00:49:40;102110.52;;;8.24;79.92
58967;BME280;44744;51.894;5.080;2023-03-20T00:50:40;102115.45;;;8.24;79.95
58967;BME280;44744;51.894;5.080;2023-03-20T00:51:41;102113.52;;;8.24;79.86
58967;BME280;44744;51.894;5.080;2023-03-20T00:52:41;102109.65;;;8.24;80.06
58967;BME280;44744;51.894;5.080;2023-03-20T00:53:41;102106.80;;;8.24;80.05
58967;BME280;44744;51.894;5.080;2023-03-20T00:56:03;102105.58;;;8.25;80.07
58967;BME280;44744;51.894;5.080;2023-03-20T00:57:09;102099.96;;;8.23;80.11
58967;BME280;44744;51.894;5.080;2023-03-20T00:58:11;102096.10;;;8.23;80.02
58967;BME280;44744;51.894;5.080;2023-03-20T00:59:23;102100.51;;;8.23;80.02
58967;BME280;44744;51.894;5.080;2023-03-20T01:01:30;102102.47;;;8.22;80.33
58967;BME280;44744;51.894;5.080;2023-03-20T01:02:31;102100.89;;;8.22;80.13
58967;BME280;44744;51.894;5.080;2023-03-20T01:03:32;102100.52;;;8.22;80.32
58967;BME280;44744;51.894;5.080;2023-03-20T01:04:40;102092.59;;;8.22;80.14
58967;BME280;44744;51.894;5.080;2023-03-20T01:05:41;102084.46;;;8.23;80.25
58967;BME280;44744;51.894;5.080;2023-03-20T01:06:41;102081.83;;;8.23;80.27
58967;BME280;44744;51.894;5.080;2023-03-20T01:07:42;102082.70;;;8.24;80.23
58967;BME280;44744;51.894;5.080;2023-03-20T01:08:42;102084.99;;;8.23;80.23
58967;BME280;44744;51.894;5.080;2023-03-20T01:09:43;102095.75;;;8.23;80.26
58967;BME280;44744;51.894;5.080;2023-03-20T01:10:45;102101.38;;;8.23;80.28
58967;BME280;44744;51.894;5.080;2023-03-20T01:11:45;102107.05;;;8.23;80.22
58967;BME280;44744;51.894;5.080;2023-03-20T01:12:46;102107.05;;;8.22;80.14
58967;BME280;44744;51.894;5.080;2023-03-20T01:13:47;102110.24;;;8.21;80.18
58967;BME280;44744;51.894;5.080;2023-03-20T01:14:55;102111.31;;;8.20;80.32
58967;BME280;44744;51.894;5.080;2023-03-20T01:15:56;102111.84;;;8.21;80.20
58967;BME280;44744;51.894;5.080;2023-03-20T01:16:57;102109.05;;;8.20;80.39
58967;BME280;44744;51.894;5.080;2023-03-20T01:17:58;102109.05;;;8.19;80.41
58967;BME280;44744;51.894;5.080;2023-03-20T01:19:00;102105.16;;;8.20;80.35
58967;BME280;44744;51.894;5.080;2023-03-20T01:20:01;102100.95;;;8.19;80.26
58967;BME280;44744;51.894;5.080;2023-03-20T01:21:04;102099.20;;;8.19;80.23
58967;BME280;44744;51.894;5.080;2023-03-20T01:22:05;102091.11;;;8.18;80.21
58967;BME280;44744;51.894;5.080;2023-03-20T01:23:05;102086.05;;;8.16;80.15
58967;BME280;44744;51.894;5.080;2023-03-20T01:24:08;102085.20;;;8.14;80.13
58967;BME280;44744;51.894;5.080;2023-03-20T01:25:12;102081.18;;;8.14;80.36
58967;BME280;44744;51.894;5.080;2023-03-20T01:26:33;102081.20;;;8.13;80.26
58967;BME280;44744;51.894;5.080;2023-03-20T01:27:34;102086.36;;;8.11;80.24
58967;BME280;44744;51.894;5.080;2023-03-20T01:28:35;102085.00;;;8.09;80.31
58967;BME280;44744;51.894;5.080;2023-03-20T01:29:35;102090.83;;;8.08;80.18
58967;BME280;44744;51.894;5.080;2023-03-20T01:30:36;102090.34;;;8.06;80.10
58967;BME280;44744;51.894;5.080;2023-03-20T01:31:36;102091.11;;;8.04;80.23
58967;BME280;44744;51.894;5.080;2023-03-20T01:32:37;102093.58;;;8.04;80.16
58967;BME280;44744;51.894;5.080;2023-03-20T01:33:37;102096.02;;;8.04;80.23
58967;BME280;44744;51.894;5.080;2023-03-20T01:34:37;102094.79;;;8.05;80.33
58967;BME280;44744;51.894;5.080;2023-03-20T01:35:38;102094.06;;;8.05;80.24
58967;BME280;44744;51.894;5.080;2023-03-20T01:36:39;102095.45;;;8.06;80.29
58967;BME280;44744;51.894;5.080;2023-03-20T01:37:39;102091.07;;;8.05;80.28
58967;BME280;44744;51.894;5.080;2023-03-20T01:38:40;102090.89;;;8.05;80.19
58967;BME280;44744;51.894;5.080;2023-03-20T01:39:41;102088.95;;;8.05;80.08
58967;BME280;44744;51.894;5.080;2023-03-20T01:40:54;102089.33;;;8.05;80.20
58967;BME280;44744;51.894;5.080;2023-03-20T01:41:56;102087.43;;;8.03;79.94
58967;BME280;44744;51.894;5.080;2023-03-20T01:42:56;102087.11;;;8.02;80.01
58967;BME280;44744;51.894;5.080;2023-03-20T01:43:56;102082.19;;;8.01;80.13
58967;BME280;44744;51.894;5.080;2023-03-20T01:44:57;102077.28;;;8.00;80.10
58967;BME280;44744;51.894;5.080;2023-03-20T01:47:02;102076.42;;;7.99;79.98
58967;BME280;44744;51.894;5.080;2023-03-20T01:48:15;102079.27;;;7.98;79.96
58967;BME280;44744;51.894;5.080;2023-03-20T01:50:28;102087.42;;;7.96;79.98
58967;BME280;44744;51.894;5.080;2023-03-20T01:51:30;102090.30;;;7.93;79.88
58967;BME280;44744;51.894;5.080;2023-03-20T01:52:30;102090.84;;;7.92;80.04
58967;BME280;44744;51.894;5.080;2023-03-20T01:53:31;102097.05;;;7.91;79.85
58967;BME280;44744;51.894;5.080;2023-03-20T01:54:35;102096.95;;;7.88;79.62
58967;BME280;44744;51.894;5.080;2023-03-20T01:55:37;102098.73;;;7.86;79.82
58967;BME280;44744;51.894;5.080;2023-03-20T01:56:47;102100.75;;;7.84;79.79
58967;BME280;44744;51.894;5.080;2023-03-20T01:57:50;102104.84;;;7.82;79.82
58967;BME280;44744;51.894;5.080;2023-03-20T01:58:59;102106.46;;;7.80;79.92
58967;BME280;44744;51.894;5.080;2023-03-20T02:00:13;102116.68;;;7.80;79.70
58967;BME280;44744;51.894;5.080;2023-03-20T02:01:14;102116.37;;;7.78;79.79
58967;BME280;44744;51.894;5.080;2023-03-20T02:02:20;102121.49;;;7.77;79.79
58967;BME280;44744;51.894;5.080;2023-03-20T02:03:22;102120.80;;;7.77;79.89
58967;BME280;44744;51.894;5.080;2023-03-20T02:04:26;102117.50;;;7.75;79.63
58967;BME280;44744;51.894;5.080;2023-03-20T02:05:28;102119.11;;;7.74;79.78
58967;BME280;44744;51.894;5.080;2023-03-20T02:06:29;102115.97;;;7.73;79.78
58967;BME280;44744;51.894;5.080;2023-03-20T02:07:32;102119.48;;;7.73;79.77
58967;BME280;44744;51.894;5.080;2023-03-20T02:08:36;102117.94;;;7.72;79.63
58967;BME280;44744;51.894;5.080;2023-03-20T02:09:40;102119.04;;;7.69;79.74
58967;BME280;44744;51.894;5.080;2023-03-20T02:10:40;102118.18;;;7.68;79.69
58967;BME280;44744;51.894;5.080;2023-03-20T02:11:42;102116.45;;;7.67;79.83
58967;BME280;44744;51.894;5.080;2023-03-20T02:12:48;102113.31;;;7.65;79.78
58967;BME280;44744;51.894;5.080;2023-03-20T02:13:53;102107.20;;;7.64;79.71
58967;BME280;44744;51.894;5.080;2023-03-20T02:14:55;102102.64;;;7.63;79.82
58967;BME280;44744;51.894;5.080;2023-03-20T02:15:59;102096.13;;;7.63;79.65
58967;BME280;44744;51.894;5.080;2023-03-20T02:17:03;102093.35;;;7.61;79.82
58967;BME280;44744;51.894;5.080;2023-03-20T02:18:05;102096.54;;;7.60;79.72
58967;BME280;44744;51.894;5.080;2023-03-20T02:19:12;102095.29;;;7.61;79.83
58967;BME280;44744;51.894;5.080;2023-03-20T02:20:41;102093.36;;;7.60;79.77
58967;BME280;44744;51.894;5.080;2023-03-20T02:22:00;102088.66;;;7.58;79.96
58967;BME280;44744;51.894;5.080;2023-03-20T02:26:30;102088.23;;;7.54;79.86
58967;BME280;44744;51.894;5.080;2023-03-20T02:31:47;102083.11;;;7.46;79.79
58967;BME280;44744;51.894;5.080;2023-03-20T02:38:17;102082.67;;;7.34;80.00
58967;BME280;44744;51.894;5.080;2023-03-20T02:40:57;102080.91;;;7.34;80.12
58967;BME280;44744;51.894;5.080;2023-03-20T02:42:14;102073.74;;;7.32;79.92
58967;BME280;44744;51.894;5.080;2023-03-20T02:43:24;102075.89;;;7.30;80.11
58967;BME280;44744;51.894;5.080;2023-03-20T02:46:10;102070.67;;;7.27;80.22
58967;BME280;44744;51.894;5.080;2023-03-20T02:47:26;102067.52;;;7.26;80.25
58967;BME280;44744;51.894;5.080;2023-03-20T02:50:27;102059.59;;;7.27;80.39
58967;BME280;44744;51.894;5.080;2023-03-20T02:51:38;102054.68;;;7.26;80.38
58967;BME280;44744;51.894;5.080;2023-03-20T02:52:50;102058.39;;;7.26;80.54
58967;BME280;44744;51.894;5.080;2023-03-20T02:54:09;102057.87;;;7.26;80.43
58967;BME280;44744;51.894;5.080;2023-03-20T02:55:36;102055.27;;;7.24;80.37
58967;BME280;44744;51.894;5.080;2023-03-20T02:58:08;102043.30;;;7.24;80.44
58967;BME280;44744;51.894;5.080;2023-03-20T03:01:09;102031.19;;;7.23;80.47
58967;BME280;44744;51.894;5.080;2023-03-20T03:02:17;102027.34;;;7.21;80.35
58967;BME280;44744;51.894;5.080;2023-03-20T03:03:26;102021.55;;;7.21;80.55
58967;BME280;44744;51.894;5.080;2023-03-20T03:04:34;102016.45;;;7.21;80.33
58967;BME280;44744;51.894;5.080;2023-03-20T03:05:41;102016.81;;;7.20;80.38
58967;BME280;44744;51.894;5.080;2023-03-20T03:06:46;102023.55;;;7.18;80.39
58967;BME280;44744;51.894;5.080;2023-03-20T03:07:51;102024.45;;;7.17;80.45
58967;BME280;44744;51.894;5.080;2023-03-20T03:09:12;102028.33;;;7.16;80.29
58967;BME280;44744;51.894;5.080;2023-03-20T03:10:21;102038.71;;;7.16;80.39
58967;BME280;44744;51.894;5.080;2023-03-20T03:11:23;102039.08;;;7.15;80.41
58967;BME280;44744;51.894;5.080;2023-03-20T03:12:38;102039.95;;;7.16;80.31
58967;BME280;44744;51.894;5.080;2023-03-20T03:13:52;102035.71;;;7.16;80.42
58967;BME280;44744;51.894;5.080;2023-03-20T03:14:58;102028.36;;;7.15;80.47
58967;BME280;44744;51.894;5.080;2023-03-20T03:16:06;102025.57;;;7.14;80.34
58967;BME280;44744;51.894;5.080;2023-03-20T03:17:10;102030.13;;;7.15;80.48
58967;BME280;44744;51.894;5.080;2023-03-20T03:18:17;102034.89;;;7.14;80.48
58967;BME280;44744;51.894;5.080;2023-03-20T03:19:23;102034.22;;;7.13;80.29
58967;BME280;44744;51.894;5.080;2023-03-20T03:20:33;102029.48;;;7.12;80.34
58967;BME280;44744;51.894;5.080;2023-03-20T03:21:36;102027.69;;;7.13;80.31
58967;BME280;44744;51.894;5.080;2023-03-20T03:22:41;102025.42;;;7.13;80.50
58967;BME280;44744;51.894;5.080;2023-03-20T03:23:46;102027.02;;;7.13;80.31
58967;BME280;44744;51.894;5.080;2023-03-20T03:24:49;102026.52;;;7.11;80.32
58967;BME280;44744;51.894;5.080;2023-03-20T03:25:52;102023.71;;;7.10;80.17
58967;BME280;44744;51.894;5.080;2023-03-20T03:26:56;102021.10;;;7.09;80.14
58967;BME280;44744;51.894;5.080;2023-03-20T03:28:04;102017.80;;;7.07;80.30
58967;BME280;44744;51.894;5.080;2023-03-20T03:29:13;102027.64;;;7.07;80.29
58967;BME280;44744;51.894;5.080;2023-03-20T03:30:23;102026.95;;;7.07;80.18
58967;BME280;44744;51.894;5.080;2023-03-20T03:31:24;102026.46;;;7.05;80.19
58967;BME280;44744;51.894;5.080;2023-03-20T03:32:37;102023.67;;;7.04;80.29
58967;BME280;44744;51.894;5.080;2023-03-20T03:33:43;102027.17;;;7.04;80.45
58967;BME280;44744;51.894;5.080;2023-03-20T03:34:44;102031.05;;;7.04;80.27
58967;BME280;44744;51.894;5.080;2023-03-20T03:35:48;102025.97;;;7.03;80.22
58967;BME280;44744;51.894;5.080;2023-03-20T03:37:03;102027.41;;;7.02;80.28
58967;BME280;44744;51.894;5.080;2023-03-20T03:39:44;102024.67;;;6.98;80.30
58967;BME280;44744;51.894;5.080;2023-03-20T03:42:37;102022.26;;;6.95;80.41
58967;BME280;44744;51.894;5.080;2023-03-20T03:43:51;102018.25;;;6.93;80.33
58967;BME280;44744;51.894;5.080;2023-03-20T03:44:59;102013.02;;;6.91;80.53
58967;BME280;44744;51.894;5.080;2023-03-20T03:46:29;102017.23;;;6.92;80.47
58967;BME280;44744;51.894;5.080;2023-03-20T03:47:35;102017.92;;;6.93;80.47
58967;BME280;44744;51.894;5.080;2023-03-20T03:48:41;102014.98;;;6.91;80.37
58967;BME280;44744;51.894;5.080;2023-03-20T03:49:48;102019.37;;;6.91;80.49
58967;BME280;44744;51.894;5.080;2023-03-20T03:50:53;102018.16;;;6.90;80.40
58967;BME280;44744;51.894;5.080;2023-03-20T03:51:59;102017.98;;;6.90;80.40
58967;BME280;44744;51.894;5.080;2023-03-20T03:53:05;102017.31;;;6.88;80.51
58967;BME280;44744;51.894;5.080;2023-03-20T03:54:12;102014.48;;;6.89;80.56
58967;BME280;44744;51.894;5.080;2023-03-20T03:55:26;102017.46;;;6.89;80.52
58967;BME280;44744;51.894;5.080;2023-03-20T03:56:31;102013.26;;;6.89;80.47
58967;BME280;44744;51.894;5.080;2023-03-20T03:57:41;102006.27;;;6.87;80.47
58967;BME280;44744;51.894;5.080;2023-03-20T03:58:52;102000.52;;;6.85;80.57
58967;BME280;44744;51.894;5.080;2023-03-20T03:59:58;102005.23;;;6.86;80.48
58967;BME280;44744;51.894;5.080;2023-03-20T04:01:02;102006.98;;;6.86;80.69
58967;BME280;44744;51.894;5.080;2023-03-20T04:02:04;102003.84;;;6.85;80.43
58967;BME280;44744;51.894;5.080;2023-03-20T04:03:06;102004.04;;;6.84;80.49
58967;BME280;44744;51.894;5.080;2023-03-20T04:04:08;102004.72;;;6.85;80.47
58967;BME280;44744;51.894;5.080;2023-03-20T04:05:11;102002.83;;;6.83;80.54
58967;BME280;44744;51.894;5.080;2023-03-20T04:06:14;102002.98;;;6.84;80.60
58967;BME280;44744;51.894;5.080;2023-03-20T04:07:15;101997.73;;;6.83;80.47
58967;BME280;44744;51.894;5.080;2023-03-20T04:08:16;101997.35;;;6.84;80.59
58967;BME280;44744;51.894;5.080;2023-03-20T04:09:16;101992.23;;;6.84;80.57
58967;BME280;44744;51.894;5.080;2023-03-20T04:10:17;101995.39;;;6.85;80.44
58967;BME280;44744;51.894;5.080;2023-03-20T04:11:20;101994.15;;;6.86;80.54
58967;BME280;44744;51.894;5.080;2023-03-20T04:12:36;101990.82;;;6.85;80.53
58967;BME280;44744;51.894;5.080;2023-03-20T04:13:36;101991.21;;;6.83;80.66
58967;BME280;44744;51.894;5.080;2023-03-20T04:14:39;101991.25;;;6.82;80.59
58967;BME280;44744;51.894;5.080;2023-03-20T04:15:40;101986.52;;;6.81;80.55
58967;BME280;44744;51.894;5.080;2023-03-20T04:16:40;101984.75;;;6.81;80.56
58967;BME280;44744;51.894;5.080;2023-03-20T04:17:41;101981.25;;;6.80;80.58
58967;BME280;44744;51.894;5.080;2023-03-20T04:18:42;101981.25;;;6.80;80.59
58967;BME280;44744;51.894;5.080;2023-03-20T04:19:45;101977.57;;;6.80;80.64
58967;BME280;44744;51.894;5.080;2023-03-20T04:20:46;101977.21;;;6.80;80.61
58967;BME280;44744;51.894;5.080;2023-03-20T04:21:47;101977.59;;;6.79;80.64
58967;BME280;44744;51.894;5.080;2023-03-20T04:22:47;101974.48;;;6.77;80.70
58967;BME280;44744;51.894;5.080;2023-03-20T04:23:48;101975.52;;;6.77;80.57
58967;BME280;44744;51.894;5.080;2023-03-20T04:24:48;101971.86;;;6.76;80.63
58967;BME280;44744;51.894;5.080;2023-03-20T04:25:54;101973.10;;;6.75;80.74
58967;BME280;44744;51.894;5.080;2023-03-20T04:26:54;101973.50;;;6.73;80.77
58967;BME280;44744;51.894;5.080;2023-03-20T04:27:55;101971.77;;;6.72;80.72
58967;BME280;44744;51.894;5.080;2023-03-20T04:28:55;101974.06;;;6.71;80.74
58967;BME280;44744;51.894;5.080;2023-03-20T04:29:56;101978.33;;;6.69;80.77
58967;BME280;44744;51.894;5.080;2023-03-20T04:30:58;101978.51;;;6.69;80.80
58967;BME280;44744;51.894;5.080;2023-03-20T04:31:59;101976.22;;;6.69;80.80
58967;BME280;44744;51.894;5.080;2023-03-20T04:32:59;101979.38;;;6.69;80.81
58967;BME280;44744;51.894;5.080;2023-03-20T04:34:00;101979.71;;;6.70;80.86
58967;BME280;44744;51.894;5.080;2023-03-20T04:35:00;101978.13;;;6.70;80.84
58967;BME280;44744;51.894;5.080;2023-03-20T04:36:00;101976.21;;;6.70;80.70
58967;BME280;44744;51.894;5.080;2023-03-20T04:37:01;101979.19;;;6.70;80.86
58967;BME280;44744;51.894;5.080;2023-03-20T04:38:01;101978.66;;;6.70;80.93
58967;BME280;44744;51.894;5.080;2023-03-20T04:39:04;101979.02;;;6.70;81.00
58967;BME280;44744;51.894;5.080;2023-03-20T04:40:05;101985.54;;;6.69;80.96
58967;BME280;44744;51.894;5.080;2023-03-20T04:41:06;101988.88;;;6.69;80.80
58967;BME280;44744;51.894;5.080;2023-03-20T04:42:07;101989.96;;;6.68;80.91
58967;BME280;44744;51.894;5.080;2023-03-20T04:43:07;101993.14;;;6.68;80.91
58967;BME280;44744;51.894;5.080;2023-03-20T04:44:08;101990.66;;;6.68;80.88
58967;BME280;44744;51.894;5.080;2023-03-20T04:45:08;101986.26;;;6.68;80.81
58967;BME280;44744;51.894;5.080;2023-03-20T04:46:09;101988.88;;;6.69;81.05
58967;BME280;44744;51.894;5.080;2023-03-20T04:47:09;101990.80;;;6.70;81.02
58967;BME280;44744;51.894;5.080;2023-03-20T04:48:10;101990.45;;;6.70;80.95
58967;BME280;44744;51.894;5.080;2023-03-20T04:49:10;101988.67;;;6.71;80.96
58967;BME280;44744;51.894;5.080;2023-03-20T04:50:10;101982.54;;;6.70;80.98
58967;BME280;44744;51.894;5.080;2023-03-20T04:51:19;101984.30;;;6.70;80.97
58967;BME280;44744;51.894;5.080;2023-03-20T04:52:20;101980.27;;;6.69;81.00
58967;BME280;44744;51.894;5.080;2023-03-20T04:53:20;101982.39;;;6.68;81.03
58967;BME280;44744;51.894;5.080;2023-03-20T04:54:21;101977.65;;;6.68;81.05
58967;BME280;44744;51.894;5.080;2023-03-20T04:55:24;101977.48;;;6.67;81.12
58967;BME280;44744;51.894;5.080;2023-03-20T04:56:24;101978.70;;;6.68;81.12
58967;BME280;44744;51.894;5.080;2023-03-20T04:57:25;101978.55;;;6.68;80.98
58967;BME280;44744;51.894;5.080;2023-03-20T04:58:25;101974.16;;;6.67;81.18
58967;BME280;44744;51.894;5.080;2023-03-20T04:59:26;101974.19;;;6.65;80.99
58967;BME280;44744;51.894;5.080;2023-03-20T05:00:26;101971.91;;;6.65;81.19
58967;BME280;44744;51.894;5.080;2023-03-20T05:01:26;101971.75;;;6.64;81.03
58967;BME280;44744;51.894;5.080;2023-03-20T05:02:27;101972.98;;;6.64;81.09
58967;BME280;44744;51.894;5.080;2023-03-20T05:03:27;101972.27;;;6.64;81.17
58967;BME280;44744;51.894;5.080;2023-03-20T05:04:27;101969.44;;;6.65;81.13
58967;BME280;44744;51.894;5.080;2023-03-20T05:05:28;101971.70;;;6.66;81.17
58967;BME280;44744;51.894;5.080;2023-03-20T05:06:29;101973.98;;;6.66;81.12
58967;BME280;44744;51.894;5.080;2023-03-20T05:07:30;101971.90;;;6.65;81.23
58967;BME280;44744;51.894;5.080;2023-03-20T05:08:30;101973.11;;;6.65;81.12
58967;BME280;44744;51.894;5.080;2023-03-20T05:09:31;101970.83;;;6.66;81.22
58967;BME280;44744;51.894;5.080;2023-03-20T05:10:31;101969.94;;;6.67;81.19
58967;BME280;44744;51.894;5.080;2023-03-20T05:11:31;101972.39;;;6.67;81.23
58967;BME280;44744;51.894;5.080;2023-03-20T05:12:32;101969.79;;;6.65;81.18
58967;BME280;44744;51.894;5.080;2023-03-20T05:13:32;101971.70;;;6.67;81.18
58967;BME280;44744;51.894;5.080;2023-03-20T05:14:33;101968.35;;;6.67;81.09
58967;BME280;44744;51.894;5.080;2023-03-20T05:15:33;101965.70;;;6.67;81.24
58967;BME280;44744;51.894;5.080;2023-03-20T05:16:35;101964.96;;;6.70;81.06
58967;BME280;44744;51.894;5.080;2023-03-20T05:17:36;101962.33;;;6.69;81.10
58967;BME280;44744;51.894;5.080;2023-03-20T05:18:36;101960.40;;;6.69;81.21
58967;BME280;44744;51.894;5.080;2023-03-20T05:19:36;101964.44;;;6.70;81.18
58967;BME280;44744;51.894;5.080;2023-03-20T05:20:37;101962.88;;;6.69;81.18
58967;BME280;44744;51.894;5.080;2023-03-20T05:21:37;101959.74;;;6.67;81.27
58967;BME280;44744;51.894;5.080;2023-03-20T05:22:38;101959.73;;;6.67;81.21
58967;BME280;44744;51.894;5.080;2023-03-20T05:23:38;101959.77;;;6.66;81.13
58967;BME280;44744;51.894;5.080;2023-03-20T05:24:38;101959.06;;;6.66;81.36
58967;BME280;44744;51.894;5.080;2023-03-20T05:25:39;101961.91;;;6.64;81.28
58967;BME280;44744;51.894;5.080;2023-03-20T05:26:39;101960.84;;;6.64;81.30
58967;BME280;44744;51.894;5.080;2023-03-20T05:27:39;101965.09;;;6.64;81.23
58967;BME280;44744;51.894;5.080;2023-03-20T05:28:40;101962.64;;;6.63;81.28
58967;BME280;44744;51.894;5.080;2023-03-20T05:29:40;101968.08;;;6.63;81.42
58967;BME280;44744;51.894;5.080;2023-03-20T05:30:41;101967.19;;;6.63;81.25
58967;BME280;44744;51.894;5.080;2023-03-20T05:31:41;101970.02;;;6.63;81.32
58967;BME280;44744;51.894;5.080;2023-03-20T05:32:41;101971.23;;;6.64;81.23
58967;BME280;44744;51.894;5.080;2023-03-20T05:33:42;101969.65;;;6.64;81.31
58967;BME280;44744;51.894;5.080;2023-03-20T05:34:43;101972.45;;;6.64;81.25
58967;BME280;44744;51.894;5.080;2023-03-20T05:35:43;101971.55;;;6.65;81.25
58967;BME280;44744;51.894;5.080;2023-03-20T05:36:43;101972.08;;;6.65;81.32
58967;BME280;44744;51.894;5.080;2023-03-20T05:37:43;101971.35;;;6.66;81.29
58967;BME280;44744;51.894;5.080;2023-03-20T05:38:44;101975.74;;;6.66;81.30
58967;BME280;44744;51.894;5.080;2023-03-20T05:39:44;101972.77;;;6.65;81.26
58967;BME280;44744;51.894;5.080;2023-03-20T05:40:51;101974.36;;;6.65;81.25
58967;BME280;44744;51.894;5.080;2023-03-20T05:41:54;101976.16;;;6.63;81.34
58967;BME280;44744;51.894;5.080;2023-03-20T05:42:55;101975.46;;;6.63;81.52
58967;BME280;44744;51.894;5.080;2023-03-20T05:43:55;101973.17;;;6.64;81.39
58967;BME280;44744;51.894;5.080;2023-03-20T05:44:55;101973.16;;;6.64;81.47
58967;BME280;44744;51.894;5.080;2023-03-20T05:45:56;101974.23;;;6.63;81.43
58967;BME280;44744;51.894;5.080;2023-03-20T05:46:56;101974.41;;;6.63;81.51
58967;BME280;44744;51.894;5.080;2023-03-20T05:47:59;101978.27;;;6.64;81.45
58967;BME280;44744;51.894;5.080;2023-03-20T05:50:11;101975.30;;;6.62;81.35
58967;BME280;44744;51.894;5.080;2023-03-20T05:51:17;101974.45;;;6.61;81.52
58967;BME280;44744;51.894;5.080;2023-03-20T05:52:18;101978.64;;;6.62;81.54
58967;BME280;44744;51.894;5.080;2023-03-20T05:53:18;101978.15;;;6.61;81.43
58967;BME280;44744;51.894;5.080;2023-03-20T05:54:18;101982.35;;;6.61;81.55
58967;BME280;44744;51.894;5.080;2023-03-20T05:55:22;101985.84;;;6.62;81.70
58967;BME280;44744;51.894;5.080;2023-03-20T05:56:22;101984.42;;;6.63;81.64
58967;BME280;44744;51.894;5.080;2023-03-20T05:57:22;101984.44;;;6.63;81.61
58967;BME280;44744;51.894;5.080;2023-03-20T05:58:23;101987.41;;;6.64;81.59
58967;BME280;44744;51.894;5.080;2023-03-20T05:59:23;101991.25;;;6.65;81.65
58967;BME280;44744;51.894;5.080;2023-03-20T06:00:24;101996.65;;;6.67;81.55
58967;BME280;44744;51.894;5.080;2023-03-20T06:01:24;101995.42;;;6.67;81.52
58967;BME280;44744;51.894;5.080;2023-03-20T06:02:27;101996.64;;;6.68;81.53
58967;BME280;44744;51.894;5.080;2023-03-20T06:03:28;101998.55;;;6.69;81.57
58967;BME280;44744;51.894;5.080;2023-03-20T06:04:28;101997.67;;;6.69;81.53
58967;BME280;44744;51.894;5.080;2023-03-20T06:05:29;101999.95;;;6.69;81.47
58967;BME280;44744;51.894;5.080;2023-03-20T06:06:29;102003.45;;;6.70;81.54
58967;BME280;44744;51.894;5.080;2023-03-20T06:07:29;102000.45;;;6.70;81.55